Time;durP1;ratioP1;P1;durP2;ratioP2;P2;SDS_P1;SDS_P2;PMS_P1;PMS_P2;Temp;Humidity;BMP_temperature;BMP_pressure;BME280_temperature;BME280_humidity;BME280_pressure;Samples;Min_cycle;Max_cycle;Signal;HPM_P1;HPM_P2
2023/06/17 00:00:57;;;;;;;0.40;0.40;;;22.50;57.50;;;23.02;41.19;94798.19;5013074;28;20285;-46
2023/06/17 00:03:24;;;;;;;0.38;0.38;;;22.50;57.40;;;22.99;41.00;94790.72;5012845;28;20231;-42
2023/06/17 00:05:52;;;;;;;0.30;0.30;;;22.50;57.40;;;22.95;41.27;94795.81;5012590;28;20197;-42
2023/06/17 00:08:19;;;;;;;0.30;0.30;;;22.50;57.40;;;22.94;41.05;94796.09;5013061;28;20213;-43
2023/06/17 00:10:47;;;;;;;0.32;0.32;;;22.50;57.50;;;22.88;41.20;94789.97;5012342;28;20283;-42
2023/06/17 00:13:19;;;;;;;0.40;0.40;;;22.50;57.60;;;22.88;41.20;94794.53;5012374;28;20679;-42
2023/06/17 00:15:50;;;;;;;0.40;0.40;;;22.40;57.50;;;22.85;41.10;94795.84;5012804;28;20183;-45
2023/06/17 00:18:19;;;;;;;0.30;0.30;;;22.40;57.50;;;22.81;41.14;94784.91;5012384;28;20604;-43
2023/06/17 00:20:52;;;;;;;0.40;0.40;;;22.40;57.60;;;22.79;41.29;94794.25;5012319;28;20251;-45
2023/06/17 00:23:20;;;;;;;0.40;0.40;;;22.40;57.60;;;22.75;41.23;94788.66;5012461;28;20640;-47
2023/06/17 00:25:49;;;;;;;0.30;0.30;;;22.30;57.50;;;22.72;41.22;94783.88;5012212;28;20537;-42
2023/06/17 00:28:16;;;;;;;0.40;0.40;;;22.20;57.50;;;22.71;41.50;94790.28;5012431;28;20280;-47
2023/06/17 00:30:46;;;;;;;0.40;0.40;;;22.20;57.60;;;22.68;41.64;94786.28;5012062;28;20211;-44
2023/06/17 00:33:14;;;;;;;0.40;0.40;;;22.20;57.70;;;22.64;41.25;94776.41;5011170;28;20233;-43
2023/06/17 00:35:42;;;;;;;0.40;0.40;;;22.20;57.80;;;22.61;41.73;94780.41;5012166;28;20189;-44
2023/06/17 00:38:09;;;;;;;0.30;0.30;;;22.20;57.80;;;22.59;41.37;94779.88;4995088;28;20205;-41
2023/06/17 00:40:36;;;;;;;0.30;0.30;;;22.10;57.70;;;22.58;41.56;94769.47;5012890;28;20635;-41
2023/06/17 00:43:03;;;;;;;0.40;0.40;;;22.10;57.90;;;22.55;41.78;94771.59;5015581;28;20699;-42
2023/06/17 00:45:38;;;;;;;0.38;0.38;;;22.10;57.90;;;22.54;41.55;94778.03;5014530;28;20211;-41
2023/06/17 00:48:10;;;;;;;0.40;0.40;;;22.10;58.00;;;22.52;41.49;94774.81;5014649;28;20198;-41
2023/06/17 00:50:38;;;;;;;0.40;0.40;;;22.00;58.00;;;22.50;41.91;94779.63;5031047;28;20271;-41
2023/06/17 00:53:06;;;;;;;0.40;0.40;;;22.00;58.00;;;22.49;41.63;94770.00;5014426;28;20195;-40
2023/06/17 00:55:35;;;;;;;0.40;0.40;;;22.00;58.00;;;22.46;41.91;94772.41;5014612;28;20636;-41
2023/06/17 00:58:03;;;;;;;0.40;0.40;;;22.00;58.10;;;22.44;41.95;94770.03;5015840;28;20199;-42
2023/06/17 01:00:30;;;;;;;0.40;0.40;;;22.00;58.10;;;22.43;41.72;94765.75;5015160;28;20205;-41
2023/06/17 01:02:58;;;;;;;0.38;0.38;;;22.00;58.10;;;22.40;41.79;94771.66;5015822;28;20271;-40
2023/06/17 01:05:27;;;;;;;0.30;0.30;;;21.90;58.10;;;22.38;42.09;94779.91;5030759;28;20208;-39
2023/06/17 01:08:02;;;;;;;0.40;0.40;;;21.90;59.40;;;22.37;42.26;94777.50;5014324;28;20262;-41
2023/06/17 01:10:41;;;;;;;0.40;0.40;;;21.90;58.30;;;22.35;42.06;94775.09;5014168;28;20249;-40
2023/06/17 01:13:12;;;;;;;0.30;0.30;;;21.90;58.40;;;22.34;42.32;94776.16;5014719;28;20181;-41
2023/06/17 01:15:39;;;;;;;0.38;0.38;;;21.80;58.30;;;22.32;41.91;94774.81;4997992;28;20213;-40
2023/06/17 01:18:08;;;;;;;0.40;0.40;;;21.80;58.30;;;22.32;42.38;94777.50;5014108;28;20293;-41
2023/06/17 01:20:36;;;;;;;0.40;0.40;;;21.80;58.40;;;22.30;42.11;94776.97;5030469;28;20199;-43
2023/06/17 01:23:05;;;;;;;0.30;0.30;;;21.80;58.40;;;22.28;42.32;94768.44;5014715;28;20232;-45
2023/06/17 01:25:34;;;;;;;0.40;0.40;;;21.80;58.40;;;22.27;42.13;94769.50;5014893;28;20203;-42
2023/06/17 01:28:15;;;;;;;0.30;0.30;;;21.80;58.50;;;22.23;42.38;94764.69;5014871;28;20643;-42
2023/06/17 01:30:54;;;;;;;0.40;0.40;;;21.80;58.60;;;22.23;42.40;94764.69;5014952;28;20643;-42
2023/06/17 01:33:24;;;;;;;0.30;0.30;;;21.80;58.60;;;22.22;42.07;94765.75;5014745;28;20182;-46
2023/06/17 01:36:19;;;;;;;0.40;0.40;;;21.80;58.50;;;22.23;42.57;94766.56;5030404;28;20603;-41
2023/06/17 01:38:51;;;;;;;0.40;0.40;;;21.80;58.60;;;22.20;42.83;94764.41;5014843;28;20599;-42
2023/06/17 01:41:27;;;;;;;0.40;0.40;;;21.80;58.70;;;22.17;42.29;94757.75;5014145;28;20507;-42
2023/06/17 01:43:57;;;;;;;0.40;0.40;;;21.70;58.60;;;22.18;42.16;94766.53;5015226;28;20189;-42
2023/06/17 01:46:24;;;;;;;0.40;0.40;;;21.70;58.60;;;22.18;42.51;94766.53;5013698;28;20206;-42
2023/06/17 01:48:54;;;;;;;0.40;0.40;;;21.70;60.00;;;22.17;42.56;94762.28;5013817;28;20208;-44
2023/06/17 01:51:22;;;;;;;0.32;0.32;;;21.70;58.70;;;22.16;42.39;94764.16;4997459;28;20221;-45
2023/06/17 01:53:50;;;;;;;0.40;0.40;;;21.70;58.70;;;22.16;42.57;94758.03;5029302;28;20212;-43
2023/06/17 01:56:17;;;;;;;0.40;0.40;;;21.70;58.70;;;22.15;42.84;94753.75;5013515;28;20291;-43
2023/06/17 01:58:44;;;;;;;0.40;0.40;;;21.70;58.80;;;22.14;42.46;94752.94;5013349;28;20526;-42
2023/06/17 02:01:12;;;;;;;0.40;0.40;;;21.70;58.80;;;22.13;42.55;94759.34;5015112;28;20198;-42
2023/06/17 02:03:42;;;;;;;0.45;0.45;;;21.70;58.90;;;22.12;42.50;94755.09;5014601;28;20368;-42
2023/06/17 02:06:09;;;;;;;0.40;0.40;;;21.70;58.90;;;22.08;42.51;94756.66;5014830;28;20208;-44
2023/06/17 02:08:37;;;;;;;0.40;0.40;;;21.70;58.90;;;22.11;42.81;94766.03;5013437;28;20224;-43
2023/06/17 02:11:04;;;;;;;0.40;0.40;;;21.70;58.80;;;22.10;42.27;94767.91;5014142;28;20656;-46
2023/06/17 02:13:31;;;;;;;0.40;0.40;;;21.70;59.00;;;22.08;43.00;94762.00;5014358;28;20209;-42
2023/06/17 02:15:58;;;;;;;0.32;0.32;;;21.70;59.00;;;22.09;42.78;94770.84;5014163;28;20224;-46
2023/06/17 02:18:25;;;;;;;0.40;0.40;;;21.70;59.00;;;22.06;42.79;94764.97;5029652;28;20204;-42
2023/06/17 02:20:52;;;;;;;0.40;0.40;;;21.70;59.10;;;22.05;42.62;94768.69;5013009;28;20209;-46
2023/06/17 02:23:20;;;;;;;0.40;0.40;;;21.60;59.00;;;22.04;42.79;94763.63;5012905;28;20717;-42
2023/06/17 02:25:47;;;;;;;0.30;0.30;;;21.60;59.00;;;22.04;42.84;94768.97;5013091;28;20205;-48
2023/06/17 02:28:14;;;;;;;0.40;0.40;;;21.60;59.00;;;22.03;42.71;94770.84;5013334;28;20240;-41
2023/06/17 02:30:41;;;;;;;0.30;0.30;;;21.60;59.00;;;22.03;42.65;94775.38;5029287;28;20217;-41
2023/06/17 02:33:08;;;;;;;0.30;0.30;;;21.60;59.00;;;22.01;42.55;94774.88;5012915;28;20529;-43
2023/06/17 02:35:36;;;;;;;0.30;0.30;;;21.60;59.00;;;22.00;43.03;94767.91;5013747;28;20217;-42
2023/06/17 02:38:03;;;;;;;0.40;0.40;;;21.60;59.10;;;21.98;43.00;94770.81;5013148;28;20542;-42
2023/06/17 02:40:30;;;;;;;0.40;0.40;;;21.60;59.10;;;21.97;42.68;94761.25;5012682;28;20240;-42
2023/06/17 02:42:57;;;;;;;0.40;0.40;;;21.60;59.10;;;21.96;42.72;94770.31;5012940;28;20221;-42
2023/06/17 02:45:24;;;;;;;0.40;0.40;;;21.60;59.20;;;21.98;42.77;94770.03;5013709;28;20198;-42
2023/06/17 02:47:52;;;;;;;0.40;0.40;;;21.60;59.20;;;21.98;43.15;94762.81;5013606;28;20658;-41
2023/06/17 02:50:23;;;;;;;0.30;0.30;;;21.60;59.20;;;21.98;42.95;94772.72;5029222;28;20205;-43
2023/06/17 02:52:55;;;;;;;0.30;0.30;;;21.60;60.40;;;21.98;42.85;94764.69;5014191;28;20191;-42
2023/06/17 02:55:27;;;;;;;0.40;0.40;;;21.60;59.30;;;21.96;42.78;94761.50;5012543;28;20604;-42
2023/06/17 02:57:57;;;;;;;0.30;0.30;;;21.60;59.30;;;21.96;43.25;94764.16;5013125;28;20205;-42
2023/06/17 03:00:28;;;;;;;0.40;0.40;;;21.60;59.30;;;21.95;43.10;94767.88;5029415;28;20210;-43
2023/06/17 03:02:56;;;;;;;0.40;0.40;;;21.60;59.30;;;21.95;43.40;94768.72;5028863;28;20213;-43
2023/06/17 03:05:23;;;;;;;0.40;0.40;;;21.60;59.40;;;21.94;42.96;94760.97;5011319;28;20207;-43
2023/06/17 03:07:51;;;;;;;0.40;0.40;;;21.60;59.40;;;21.94;42.93;94769.78;5012427;28;20266;-42
2023/06/17 03:10:18;;;;;;;0.40;0.40;;;21.60;59.40;;;21.95;43.01;94766.03;5028634;28;20750;-43
2023/06/17 03:12:53;;;;;;;0.40;0.40;;;21.60;59.40;;;21.95;43.50;94767.88;5028874;28;20210;-42
2023/06/17 03:15:20;;;;;;;0.32;0.32;;;21.60;59.30;;;21.95;42.94;94775.91;5012444;28;20212;-43
2023/06/17 03:17:48;;;;;;;0.30;0.30;;;21.60;59.40;;;21.95;43.46;94767.88;5013033;28;20258;-46
2023/06/17 03:20:16;;;;;;;0.38;0.38;;;21.60;59.40;;;21.95;43.32;94776.72;5013511;28;20198;-43
2023/06/17 03:22:44;;;;;;;0.30;0.30;;;21.60;60.50;;;21.95;43.03;94766.03;5012556;28;20260;-43
2023/06/17 03:25:12;;;;;;;0.30;0.30;;;21.60;59.50;;;21.96;43.33;94772.16;5012158;28;20274;-43
2023/06/17 03:27:39;;;;;;;0.50;0.50;;;21.60;59.40;;;21.96;43.19;94769.50;5012132;28;20224;-43
2023/06/17 03:30:07;;;;;;;0.50;0.50;;;21.60;59.50;;;21.94;43.42;94775.13;5028415;28;20210;-43
2023/06/17 03:32:35;;;;;;;0.40;0.40;;;21.60;59.50;;;21.95;43.25;94774.06;5028475;28;20371;-42
2023/06/17 03:35:02;;;;;;;0.50;0.50;;;21.60;59.50;;;21.95;43.56;94766.03;5012877;28;20217;-41
2023/06/17 03:37:30;;;;;;;0.50;0.50;;;21.60;60.00;;;21.96;43.43;94772.16;5011973;28;20205;-42
2023/06/17 03:39:57;;;;;;;0.30;0.30;;;21.60;59.50;;;21.94;43.46;94769.78;5012953;28;20297;-42
2023/06/17 03:42:26;;;;;;;0.45;0.45;;;21.60;59.50;;;21.93;43.55;94765.50;5028603;28;20221;-43
2023/06/17 03:44:53;;;;;;;0.40;0.40;;;21.60;59.50;;;21.95;43.27;94762.56;5011851;28;20224;-42
2023/06/17 03:47:20;;;;;;;0.50;0.50;;;21.60;59.50;;;21.93;43.43;94760.16;5012981;28;20208;-45
2023/06/17 03:49:47;;;;;;;0.40;0.40;;;21.60;59.50;;;21.93;43.69;94768.16;5011677;28;20243;-44
2023/06/17 03:52:15;;;;;;;0.40;0.40;;;21.60;59.50;;;21.94;43.58;94774.31;5011623;28;20267;-42
2023/06/17 03:54:42;;;;;;;0.40;0.40;;;21.60;59.40;;;21.91;43.53;94771.13;5028159;28;20283;-42
2023/06/17 03:57:10;;;;;;;0.40;0.40;;;21.60;59.50;;;21.91;43.63;94779.13;5012596;28;20629;-42
2023/06/17 03:59:37;;;;;;;0.40;0.40;;;21.60;59.50;;;21.90;43.08;94777.50;5011705;28;20655;-42
2023/06/17 04:02:04;;;;;;;0.30;0.30;;;21.60;59.50;;;21.91;43.44;94787.13;5028063;28;20197;-42
2023/06/17 04:04:34;;;;;;;0.40;0.40;;;21.60;59.50;;;21.90;43.57;94788.19;5011609;28;20640;-42
2023/06/17 04:07:02;;;;;;;0.30;0.30;;;21.60;59.60;;;21.90;43.27;94792.75;5011587;28;20246;-42
2023/06/17 04:09:32;;;;;;;0.40;0.40;;;21.60;59.50;;;21.88;43.25;94782.31;5011509;28;20282;-42
2023/06/17 04:11:59;;;;;;;0.30;0.30;;;21.60;59.50;;;21.88;43.20;94789.53;5012330;28;20258;-43
2023/06/17 04:14:26;;;;;;;0.30;0.30;;;21.60;59.60;;;21.88;43.33;94790.31;5012400;28;20225;-44
2023/06/17 04:16:56;;;;;;;0.40;0.40;;;21.60;59.70;;;21.88;43.59;94784.97;5012283;28;20624;-42
2023/06/17 04:19:23;;;;;;;0.40;0.40;;;21.60;59.70;;;21.89;43.41;94791.94;5027893;28;20211;-41
2023/06/17 04:21:51;;;;;;;0.30;0.30;;;21.60;59.70;;;21.89;43.78;94789.25;5011072;28;20197;-42
2023/06/17 04:24:18;;;;;;;0.30;0.30;;;21.60;59.80;;;21.89;43.65;94785.81;5011341;28;20212;-42
2023/06/17 04:26:45;;;;;;;0.40;0.40;;;21.60;59.80;;;21.89;43.85;94788.47;5011274;28;20220;-41
2023/06/17 04:29:14;;;;;;;0.40;0.40;;;21.60;59.80;;;21.90;43.73;94787.41;5011268;28;20201;-42
2023/06/17 04:31:45;;;;;;;0.40;0.40;;;21.60;59.80;;;21.90;43.75;94790.06;5011457;28;20648;-41
2023/06/17 04:34:21;;;;;;;0.32;0.32;;;21.60;59.90;;;21.89;43.55;94789.25;5011201;28;20243;-41
2023/06/17 04:36:57;;;;;;;0.40;0.40;;;21.60;59.90;;;21.89;43.94;94794.59;5012124;28;20169;-42
2023/06/17 04:39:27;;;;;;;0.40;0.40;;;21.60;59.80;;;21.90;43.76;94800.75;5012410;28;20504;-41
2023/06/17 04:41:55;;;;;;;0.30;0.30;;;21.60;59.80;;;21.88;43.89;94798.34;5011178;28;20691;-42
2023/06/17 04:44:22;;;;;;;0.30;0.30;;;21.60;59.80;;;21.89;43.85;94797.28;5011647;28;20206;-41
2023/06/17 04:46:50;;;;;;;0.40;0.40;;;21.60;59.80;;;21.89;43.77;94799.16;5012225;28;20206;-42
2023/06/17 04:49:17;;;;;;;0.40;0.40;;;21.60;59.80;;;21.89;43.56;94799.16;5010957;28;20204;-42
2023/06/17 04:51:44;;;;;;;0.40;0.40;;;21.70;59.90;;;21.90;43.48;94801.53;5010895;28;20202;-42
2023/06/17 04:54:12;;;;;;;0.40;0.40;;;21.70;60.00;;;21.91;43.78;94802.38;5010950;28;20212;-42
2023/06/17 04:56:40;;;;;;;0.40;0.40;;;21.60;59.80;;;21.89;43.81;94789.25;5027435;28;20193;-42
2023/06/17 04:59:07;;;;;;;0.30;0.30;;;21.60;59.90;;;21.90;43.76;94796.22;5010940;28;20207;-44
2023/06/17 05:01:35;;;;;;;0.40;0.40;;;21.60;59.80;;;21.91;43.64;94802.38;5010912;28;20202;-42
2023/06/17 05:04:03;;;;;;;0.30;0.30;;;21.60;59.80;;;21.92;43.83;94801.28;5027353;28;20208;-41
2023/06/17 05:06:31;;;;;;;0.30;0.30;;;21.70;60.00;;;21.92;43.57;94809.28;5010860;28;20300;-41
2023/06/17 05:08:59;;;;;;;0.32;0.32;;;21.70;59.90;;;21.92;43.85;94803.94;5097726;28;20230;-44
2023/06/17 05:11:26;;;;;;;0.32;0.32;;;21.70;60.00;;;21.93;43.71;94810.09;5027323;28;20293;-42
2023/06/17 05:13:53;;;;;;;0.40;0.40;;;21.70;60.00;;;21.91;43.64;94808.50;5027234;28;20628;-42
2023/06/17 05:16:20;;;;;;;0.40;0.40;;;21.70;59.90;;;21.91;43.65;94811.16;5011904;28;20323;-44
2023/06/17 05:18:48;;;;;;;0.40;0.40;;;21.70;60.00;;;21.89;43.63;94809.84;5010792;28;20262;-42
2023/06/17 05:21:20;;;;;;;0.30;0.30;;;21.70;59.90;;;21.88;43.91;94811.69;5011067;28;20202;-42
2023/06/17 05:23:47;;;;;;;0.30;0.30;;;21.70;59.90;;;21.88;43.69;94809.00;5010884;28;20675;-43
2023/06/17 05:26:14;;;;;;;0.30;0.30;;;21.60;59.80;;;21.88;43.93;94814.34;5012008;28;20281;-42
2023/06/17 05:28:41;;;;;;;0.30;0.30;;;21.70;59.90;;;21.88;43.52;94810.91;5013251;28;20641;-43
2023/06/17 05:31:10;;;;;;;0.30;0.30;;;21.70;60.00;;;21.89;43.95;94807.16;5014166;28;20302;-41
2023/06/17 05:33:37;;;;;;;0.35;0.35;;;21.60;60.80;;;21.90;43.51;94814.09;5013968;28;20214;-42
2023/06/17 05:36:05;;;;;;;0.30;0.30;;;21.60;60.00;;;21.89;43.64;94820.50;5014142;28;20557;-43
2023/06/17 05:38:32;;;;;;;0.40;0.40;;;21.70;60.00;;;21.90;43.80;94814.09;5014986;28;20201;-41
2023/06/17 05:40:59;;;;;;;0.30;0.30;;;21.60;59.90;;;21.90;44.15;94817.56;5014215;28;20369;-44
2023/06/17 05:43:29;;;;;;;0.30;0.30;;;21.70;60.10;;;21.92;43.54;94814.63;5030281;28;20207;-44
2023/06/17 05:45:58;;;;;;;0.40;0.40;;;21.70;60.10;;;21.91;43.62;94811.16;4997854;28;20249;-43
2023/06/17 05:48:25;;;;;;;0.40;0.40;;;21.70;60.10;;;21.93;44.04;94818.13;5015583;28;20227;-46
2023/06/17 05:50:53;;;;;;;0.40;0.40;;;21.70;60.00;;;21.93;43.67;94808.22;5013913;28;20541;-40
2023/06/17 05:53:20;;;;;;;0.30;0.30;;;21.70;60.00;;;21.94;44.25;94812.50;5014543;28;20207;-43
2023/06/17 05:55:47;;;;;;;0.40;0.40;;;21.70;60.10;;;21.94;43.75;94809.03;5029984;28;20229;-40
2023/06/17 05:58:14;;;;;;;0.40;0.40;;;21.70;60.00;;;21.94;43.83;94812.50;5030147;28;20208;-39
2023/06/17 06:00:50;;;;;;;0.25;0.25;;;21.70;60.00;;;21.95;43.71;94805.28;5013568;28;20197;-43
2023/06/17 06:03:18;;;;;;;0.40;0.40;;;21.70;60.00;;;21.95;43.77;94800.75;5013400;28;20206;-40
2023/06/17 06:05:45;;;;;;;0.30;0.30;;;21.70;60.00;;;21.96;43.94;94806.88;5014475;28;20259;-39
2023/06/17 06:08:12;;;;;;;0.40;0.40;;;21.70;60.00;;;21.97;44.00;94813.84;5013738;28;20563;-41
2023/06/17 06:10:40;;;;;;;0.30;0.30;;;21.70;60.00;;;21.98;43.87;94818.91;5030146;28;20222;-40
2023/06/17 06:13:08;;;;;;;0.30;0.30;;;21.70;60.00;;;21.98;44.16;94813.56;5014443;28;20263;-44
2023/06/17 06:15:36;;;;;;;0.40;0.40;;;21.80;61.00;;;21.96;43.83;94807.69;5013201;28;20568;-43
2023/06/17 06:18:05;;;;;;;0.38;0.38;;;21.80;60.10;;;22.01;44.29;94813.03;5029803;28;20620;-41
2023/06/17 06:20:33;;;;;;;0.30;0.30;;;21.80;60.10;;;22.02;43.73;94819.16;5013436;28;20208;-41
2023/06/17 06:23:00;;;;;;;0.40;0.40;;;21.80;60.10;;;22.03;43.73;94826.13;5014753;28;20335;-41
2023/06/17 06:25:27;;;;;;;0.30;0.30;;;21.80;60.00;;;22.03;43.96;94826.13;5013217;28;20216;-40
2023/06/17 06:27:55;;;;;;;0.32;0.32;;;21.80;60.10;;;22.03;44.20;94824.28;5013373;28;20591;-44
2023/06/17 06:30:26;;;;;;;0.30;0.30;;;21.80;60.00;;;22.04;44.08;94820.50;5013222;28;20215;-42
2023/06/17 06:32:54;;;;;;;0.40;0.40;;;21.80;60.10;;;22.06;43.95;94826.38;5013009;28;20205;-42
2023/06/17 06:35:22;;;;;;;0.40;0.40;;;21.80;60.10;;;22.06;44.07;94822.94;5013580;28;20284;-41
2023/06/17 06:37:51;;;;;;;0.30;0.30;;;21.80;60.00;;;22.09;44.07;94821.59;5029466;28;20228;-46
2023/06/17 06:40:19;;;;;;;0.30;0.30;;;21.80;60.10;;;22.10;44.05;94818.66;5029367;28;20298;-45
2023/06/17 06:42:47;;;;;;;0.40;0.40;;;21.80;60.10;;;22.10;44.17;94810.63;5014444;28;20200;-41
2023/06/17 06:45:19;;;;;;;0.30;0.30;;;21.80;60.10;;;22.12;44.17;94819.19;5029690;28;20195;-41
2023/06/17 06:47:46;;;;;;;0.30;0.30;;;21.90;60.20;;;22.14;44.25;94824.25;5030307;28;20200;-42
2023/06/17 06:50:13;;;;;;;0.20;0.20;;;21.90;60.20;;;22.14;44.20;94817.06;5013832;28;20211;-43
2023/06/17 06:52:40;;;;;;;0.40;0.40;;;21.90;60.30;;;22.16;43.87;94819.47;5012766;28;20615;-43
2023/06/17 06:55:08;;;;;;;0.30;0.30;;;21.90;60.20;;;22.17;44.08;94821.06;5013134;28;20231;-44
2023/06/17 06:57:37;;;;;;;0.30;0.30;;;21.90;60.20;;;22.18;43.76;94820.78;5030094;28;20287;-44
2023/06/17 07:00:08;;;;;;;0.32;0.32;;;21.90;60.20;;;22.20;44.32;94820.50;5012774;28;20224;-46
2023/06/17 07:02:37;;;;;;;0.30;0.30;;;21.90;60.30;;;22.20;44.47;94823.19;5012584;28;20221;-46
2023/06/17 07:05:05;;;;;;;0.40;0.40;;;22.00;60.30;;;22.21;44.36;94820.25;5013857;28;20536;-43
2023/06/17 07:07:38;;;;;;;0.40;0.40;;;22.00;60.20;;;22.22;44.23;94821.84;5012616;28;20209;-46
2023/06/17 07:10:06;;;;;;;0.30;0.30;;;22.00;60.20;;;22.24;44.25;94816.25;5013621;28;20200;-41
2023/06/17 07:12:34;;;;;;;0.35;0.35;;;22.00;60.10;;;22.23;44.12;94820.00;4996343;28;20212;-41
2023/06/17 07:15:03;;;;;;;0.30;0.30;;;22.00;60.10;;;22.26;44.07;94815.97;5028832;28;20247;-41
2023/06/17 07:17:31;;;;;;;0.40;0.40;;;22.00;60.10;;;22.26;44.28;94824.78;5012363;28;20197;-42
2023/06/17 07:19:59;;;;;;;0.30;0.30;;;22.00;60.10;;;22.27;44.12;94821.06;5012579;28;20214;-42
2023/06/17 07:22:26;;;;;;;0.32;0.32;;;22.10;60.10;;;22.29;43.73;94815.44;5011933;28;20245;-41
2023/06/17 07:24:54;;;;;;;0.30;0.30;;;22.10;60.20;;;22.31;44.00;94824.78;5013686;28;20646;-42
2023/06/17 07:27:22;;;;;;;0.30;0.30;;;22.10;60.20;;;22.32;44.10;94822.91;5012718;28;20707;-41
2023/06/17 07:29:50;;;;;;;0.30;0.30;;;22.10;60.10;;;22.34;44.13;94821.59;5012093;28;20207;-42
2023/06/17 07:32:17;;;;;;;0.30;0.30;;;22.10;60.10;;;22.34;44.27;94832.28;5012813;28;20209;-42
2023/06/17 07:34:45;;;;;;;0.30;0.30;;;22.10;60.10;;;22.37;44.13;94814.91;5028594;28;20278;-41
2023/06/17 07:37:12;;;;;;;0.30;0.30;;;22.20;60.20;;;22.38;43.90;94816.53;5012006;28;20209;-40
2023/06/17 07:39:39;;;;;;;0.30;0.30;;;22.10;60.10;;;22.41;44.29;94801.84;5012947;28;20261;-43
2023/06/17 07:42:06;;;;;;;0.30;0.30;;;22.20;60.20;;;22.42;43.99;94811.47;5012889;28;20287;-43
2023/06/17 07:44:33;;;;;;;0.40;0.40;;;22.20;60.20;;;22.44;43.96;94812.00;5012656;28;20215;-42
2023/06/17 07:47:01;;;;;;;0.30;0.30;;;22.20;60.10;;;22.45;44.08;94803.69;5012788;28;20299;-43
2023/06/17 07:49:29;;;;;;;0.40;0.40;;;22.20;60.10;;;22.48;43.84;94811.16;5012670;28;20199;-43
2023/06/17 07:51:56;;;;;;;0.30;0.30;;;22.20;60.10;;;22.50;44.06;94802.91;5012486;28;20201;-44
2023/06/17 07:54:24;;;;;;;0.40;0.40;;;22.30;60.20;;;22.51;43.87;94799.16;5012548;28;20264;-43
2023/06/17 07:56:51;;;;;;;0.30;0.30;;;22.20;60.10;;;22.54;43.93;94804.78;5012883;28;20256;-43
2023/06/17 07:59:18;;;;;;;0.30;0.30;;;22.30;60.10;;;22.55;44.03;94798.31;5012847;28;20204;-43
2023/06/17 08:01:45;;;;;;;0.40;0.40;;;22.30;60.10;;;22.57;43.74;94802.59;5012572;28;20601;-43
2023/06/17 08:04:13;;;;;;;0.30;0.30;;;22.30;60.10;;;22.57;43.77;94800.75;5012400;28;20228;-47
2023/06/17 08:06:40;;;;;;;0.40;0.40;;;22.40;60.10;;;22.60;43.99;94788.72;5012514;28;20266;-43
2023/06/17 08:09:08;;;;;;;0.30;0.30;;;22.40;60.10;;;22.63;43.67;94793.50;5012456;28;20203;-42
2023/06/17 08:11:36;;;;;;;0.28;0.28;;;22.40;60.10;;;22.64;43.87;94801.28;5012710;28;20596;-43
2023/06/17 08:14:03;;;;;;;0.30;0.30;;;22.40;60.00;;;22.66;43.58;94801.78;5012454;28;20237;-49
2023/06/17 08:16:30;;;;;;;0.30;0.30;;;22.40;60.00;;;22.68;43.50;94804.22;5012586;28;20242;-43
2023/06/17 08:18:57;;;;;;;0.40;0.40;;;22.40;60.00;;;22.69;43.67;94801.25;5012345;28;20699;-43
2023/06/17 08:21:24;;;;;;;0.40;0.40;;;22.40;59.90;;;22.73;43.65;94800.69;5012889;28;20213;-43
2023/06/17 08:23:51;;;;;;;0.30;0.30;;;22.50;59.90;;;22.75;43.72;94798.56;5012057;28;20230;-43
2023/06/17 08:26:18;;;;;;;0.30;0.30;;;22.50;59.90;;;22.77;43.57;94807.13;5012354;28;20208;-44
2023/06/17 08:28:46;;;;;;;0.40;0.40;;;22.50;59.90;;;22.78;43.63;94792.69;5012223;28;20267;-42
2023/06/17 08:31:13;;;;;;;0.30;0.30;;;22.50;59.80;;;22.79;43.54;94800.44;5012361;28;20193;-44
2023/06/17 08:33:40;;;;;;;0.30;0.30;;;22.60;59.90;;;22.82;43.69;94802.53;5012343;28;20678;-42
2023/06/17 08:36:07;;;;;;;0.30;0.30;;;22.50;60.70;;;22.84;43.38;94796.94;5011476;28;20235;-46
2023/06/17 08:38:34;;;;;;;0.35;0.35;;;22.60;59.90;;;22.85;43.52;94788.63;5012249;28;20197;-43
2023/06/17 08:41:02;;;;;;;0.30;0.30;;;22.60;59.80;;;22.89;43.76;94794.25;5012257;28;20204;-45
2023/06/17 08:43:31;;;;;;;0.30;0.30;;;22.60;59.70;;;22.89;43.38;94790.75;5012304;28;20204;-44
2023/06/17 08:45:59;;;;;;;0.30;0.30;;;22.70;59.90;;;22.90;43.55;94782.47;5012324;28;20273;-42
2023/06/17 08:48:26;;;;;;;0.35;0.35;;;22.70;59.80;;;22.93;43.50;94789.94;5012077;28;20276;-45
2023/06/17 08:50:54;;;;;;;0.30;0.30;;;22.70;59.70;;;22.95;43.50;94790.47;5012140;28;20197;-42
2023/06/17 08:53:23;;;;;;;0.30;0.30;;;22.70;59.70;;;22.97;43.24;94790.19;5012050;28;20258;-41
2023/06/17 08:55:50;;;;;;;0.30;0.30;;;22.70;59.60;;;22.99;43.38;94788.06;5012420;28;20210;-39
2023/06/17 08:58:17;;;;;;;0.30;0.30;;;22.70;59.40;;;23.00;43.28;94784.31;5012424;28;20197;-41
2023/06/17 09:00:44;;;;;;;0.38;0.38;;;22.80;59.60;;;23.03;43.44;94781.91;5012159;28;20539;-41
2023/06/17 09:03:14;;;;;;;0.30;0.30;;;22.70;59.30;;;23.06;43.29;94785.88;5013684;28;20203;-41
2023/06/17 09:05:41;;;;;;;0.40;0.40;;;22.80;59.50;;;23.06;42.93;94777.88;5014718;28;20515;-40
2023/06/17 09:08:08;;;;;;;0.30;0.30;;;22.80;59.40;;;23.09;43.19;94779.97;5015247;28;20267;-41
2023/06/17 09:10:43;;;;;;;0.40;0.40;;;22.80;59.30;;;23.13;42.98;94780.22;5015275;28;20229;-40
2023/06/17 09:13:11;;;;;;;0.30;0.30;;;22.90;59.40;;;23.15;43.38;94783.44;5015364;28;20308;-41
2023/06/17 09:15:43;;;;;;;0.30;0.30;;;22.90;59.50;;;23.17;43.25;94775.97;5015437;28;20214;-42
2023/06/17 09:18:10;;;;;;;0.25;0.25;;;22.90;59.40;;;23.20;42.97;94772.75;5015795;28;20198;-42
2023/06/17 09:20:37;;;;;;;0.38;0.38;;;22.90;59.50;;;23.21;43.23;94782.38;5015103;28;20205;-43
2023/06/17 09:23:05;;;;;;;0.32;0.32;;;22.90;59.40;;;23.23;43.00;94777.56;5014832;28;20278;-44
2023/06/17 09:25:35;;;;;;;0.30;0.30;;;22.90;59.30;;;23.26;43.14;94786.91;5015256;28;20201;-41
2023/06/17 09:28:02;;;;;;;0.40;0.40;;;23.00;59.40;;;23.27;42.87;94773.25;5015344;28;20326;-42
2023/06/17 09:30:43;;;;;;;0.20;0.20;;;23.00;59.40;;;23.28;43.13;94780.19;5015556;28;20179;-42
2023/06/17 09:33:21;;;;;;;0.30;0.30;;;23.00;59.20;;;23.28;42.99;94769.50;5014969;28;20194;-41
2023/06/17 09:36:01;;;;;;;0.30;0.30;;;23.00;59.10;;;23.30;42.95;94767.34;5015358;28;20210;-41
2023/06/17 09:38:28;;;;;;;0.30;0.30;;;23.00;59.00;;;23.33;42.74;94763.31;5015126;28;20519;-42
2023/06/17 09:40:57;;;;;;;0.40;0.40;;;23.00;59.10;;;23.36;42.65;94768.09;5015357;28;20195;-41
2023/06/17 09:43:26;;;;;;;0.30;0.30;;;23.10;59.10;;;23.38;42.89;94760.59;5030427;28;20191;-43
2023/06/17 09:46:04;;;;;;;0.20;0.20;;;23.10;59.00;;;23.39;42.72;94775.59;5015744;28;20255;-41
2023/06/17 09:48:38;;;;;;;0.40;0.40;;;23.10;58.90;;;23.42;42.59;94766.22;5015012;28;20190;-42
2023/06/17 09:51:09;;;;;;;0.30;0.30;;;23.20;58.90;;;23.44;42.77;94769.41;5014847;28;20190;-42
2023/06/17 09:53:37;;;;;;;0.30;0.30;;;23.20;59.00;;;23.47;42.54;94755.47;5014699;28;20195;-42
2023/06/17 09:56:10;;;;;;;0.30;0.30;;;23.20;59.00;;;23.48;42.49;94749.03;5014782;28;20233;-42
2023/06/17 09:58:38;;;;;;;0.35;0.35;;;23.20;59.00;;;23.52;42.74;94751.97;5014540;28;20212;-44
2023/06/17 10:01:11;;;;;;;0.40;0.40;;;23.20;59.00;;;23.53;42.70;94748.22;5014855;28;20200;-50
2023/06/17 10:03:41;;;;;;;0.20;0.20;;;23.20;58.90;;;23.57;42.68;94751.94;5029847;28;20204;-47
2023/06/17 10:06:12;;;;;;;0.20;0.20;;;23.20;59.00;;;23.56;42.24;94744.97;5014519;28;20578;-46
2023/06/17 10:08:42;;;;;;;0.20;0.20;;;23.30;58.90;;;23.60;42.67;94749.50;5015104;28;20586;-43
2023/06/17 10:11:15;;;;;;;0.20;0.20;;;23.30;59.00;;;23.61;42.35;94742.28;5014630;28;20574;-43
2023/06/17 10:13:45;;;;;;;0.50;0.50;;;23.30;58.80;;;23.61;42.58;94745.75;5014224;28;20656;-44
2023/06/17 10:16:18;;;;;;;0.30;0.30;;;23.30;58.80;;;23.66;42.11;94742.22;5029676;28;20317;-42
2023/06/17 10:18:48;;;;;;;0.30;0.30;;;23.30;58.50;;;23.67;42.49;94733.91;5014674;28;20219;-40
2023/06/17 10:21:17;;;;;;;0.30;0.30;;;23.40;58.70;;;23.70;42.37;94735.22;5014485;28;20292;-45
2023/06/17 10:23:47;;;;;;;0.25;0.25;;;23.40;58.70;;;23.73;42.25;94731.19;5014225;28;20240;-43
2023/06/17 10:26:15;;;;;;;0.28;0.28;;;23.40;58.70;;;23.75;42.12;94731.72;5013485;28;20200;-42